Sumisemaru No.5 — JE3162 — position and weather

sailwx.info

Track history (hours):
 
Tides and Currents Weather Stations Pressure Air Temp Water Temp Dewpoint Dewpoint Depression Visibility Wind Speed Wind Dir Waves Ship Positions

Sumisemaru No.5

Last reported at 2014-Jul-24 18:31 UTC. Time now 2014-Jul-25 18:17 UTC.
Position N 36°16' E 141°06'.

Length 96 m; draft 5.3 m.

Type: Cargo ship. MMSI: 431700423.

Date/timePositionNaut miles runAvg speedWind from/ knotsBaromVisibWave heightAir tempDewpointWater temp
2014-Jul-24 18:31N 36°16' E 141°06'1313.2
2014-Jul-24 17:33N 36°04' E 141°03'1313.3
2014-Jul-24 16:33N 35°50' E 140°60'1412.6
2014-Jul-24 15:25N 35°37' E 140°54'1213.2
2014-Jul-24 14:29N 35°27' E 140°46'5911.9
2014-Jul-24 09:33N 34°58' E 139°43'1313.2
2014-Jul-24 08:33N 35°11' E 139°46'1212.0
2014-Jul-24 07:34N 35°23' E 139°42'1312.9
2014-Jul-24 06:33N 35°30' E 139°55'4 3.7
2014-Jul-24 05:32N 35°28' E 139°59'0 0.0
2014-Jul-24 04:29N 35°28' E 139°59'0 0.0
2014-Jul-24 03:32N 35°28' E 139°59'0 0.0
2014-Jul-24 02:32N 35°28' E 139°59'0 0.0
2014-Jul-24 01:32N 35°28' E 139°59'0 0.0
2014-Jul-24 00:23N 35°28' E 139°59'0 0.1
2014-Jul-23 23:32N 35°28' E 139°59'0 0.0
2014-Jul-23 22:32N 35°28' E 139°59'2 2.0
2014-Jul-23 21:33N 35°30' E 139°58'8 8.2
2014-Jul-23 20:33N 35°26' E 139°49'1010.3
2014-Jul-23 19:34N 35°15' E 139°47'1212.1
2014-Jul-23 18:33N 35°04' E 139°44'1212.0
2014-Jul-23 17:33N 34°53' E 139°37'1312.9
2014-Jul-23 16:33N 34°51' E 139°21'  
2014-Jul-20 04:31N 34°10' E 134°57'1313.2
2014-Jul-20 03:33N 34°23' E 135°01'1313.6
2014-Jul-20 02:33N 34°32' E 135°13'6 5.5
2014-Jul-20 01:30N 34°36' E 135°18'0 0.0
2014-Jul-20 00:30N 34°36' E 135°18'0 0.0
2014-Jul-19 23:25N 34°36' E 135°18'0 0.0
2014-Jul-19 22:30N 34°36' E 135°18'0 0.1
2014-Jul-19 21:30N 34°36' E 135°18'0 0.0
2014-Jul-19 20:30N 34°36' E 135°18'0 0.1
2014-Jul-19 19:30N 34°36' E 135°18'0 0.0
2014-Jul-19 18:30N 34°36' E 135°18'0 0.0
2014-Jul-19 17:31N 34°36' E 135°18'0 0.0
2014-Jul-19 16:30N 34°36' E 135°18'1 0.6
2014-Jul-19 15:33N 34°36' E 135°19'8 7.7
2014-Jul-19 14:32N 34°40' E 135°27'0 0.0
2014-Jul-19 13:26N 34°40' E 135°27'0 0.0
2014-Jul-19 12:32N 34°40' E 135°27'0 0.0
2014-Jul-19 11:14N 34°40' E 135°27'0 0.0
2014-Jul-19 10:32N 34°40' E 135°27'0 0.0
2014-Jul-19 09:20N 34°40' E 135°27'0 0.0
2014-Jul-19 08:32N 34°40' E 135°27'0 0.0
2014-Jul-19 07:20N 34°40' E 135°27'0 0.0
2014-Jul-19 06:32N 34°40' E 135°27'0 0.0
2014-Jul-19 05:32N 34°40' E 135°27'0 0.0
2014-Jul-19 04:26N 34°40' E 135°27'0 0.0
2014-Jul-19 03:26N 34°40' E 135°27'0 0.0
2014-Jul-19 02:32N 34°40' E 135°27'1 0.6
2014-Jul-19 01:33N 34°40' E 135°26'8 8.3
2014-Jul-19 00:33N 34°35' E 135°18'1312.5
2014-Jul-18 23:30N 34°37' E 135°02'1713.4
2014-Jul-18 22:13N 34°40' E 134°41'11 0.2
2014-Jul-16 23:31N 34°37' E 134°54'1010.3
2014-Jul-16 22:33N 34°35' E 135°06'1212.0
2014-Jul-16 21:33N 34°23' E 135°02'1111.0
2014-Jul-16 20:33N 34°12' E 134°59'244 9.7
2014-Jul-15 19:29N 34°47' E 139°52'1211.8
2014-Jul-15 18:29N 34°53' E 140°04'1111.8
2014-Jul-15 17:31N 34°60' E 140°16'1311.2
2014-Jul-15 16:24N 35°05' E 140°30'1211.1
2014-Jul-15 15:17N 35°16' E 140°38'912.1
2014-Jul-15 14:34N 35°23' E 140°43'1313.0
2014-Jul-15 13:34N 35°34' E 140°52'1212.1
2014-Jul-15 12:32N 35°45' E 140°59'1313.3
2014-Jul-15 11:33N 35°58' E 141°01'  
Track history (hours):
 
Tides and Currents Weather Stations Pressure Air Temp Water Temp Dewpoint Dewpoint Depression Visibility Wind Speed Wind Dir Waves Ship Positions

Sumisemaru No.5

Last reported at 2014-Jul-24 18:31 UTC. Time now 2014-Jul-25 18:17 UTC.
Position N 36°16' E 141°06'.

Length 96 m; draft 5.3 m.

Type: Cargo ship. MMSI: 431700423.

Date/timePositionNaut miles runAvg speedWind from/ knotsBaromVisibWave heightAir tempDewpointWater temp
2014-Jul-24 18:31N 36°16' E 141°06'1313.2
2014-Jul-24 17:33N 36°04' E 141°03'1313.3
2014-Jul-24 16:33N 35°50' E 140°60'1412.6
2014-Jul-24 15:25N 35°37' E 140°54'1213.2
2014-Jul-24 14:29N 35°27' E 140°46'5911.9
2014-Jul-24 09:33N 34°58' E 139°43'1313.2
2014-Jul-24 08:33N 35°11' E 139°46'1212.0
2014-Jul-24 07:34N 35°23' E 139°42'1312.9
2014-Jul-24 06:33N 35°30' E 139°55'4 3.7
2014-Jul-24 05:32N 35°28' E 139°59'0 0.0
2014-Jul-24 04:29N 35°28' E 139°59'0 0.0
2014-Jul-24 03:32N 35°28' E 139°59'0 0.0
2014-Jul-24 02:32N 35°28' E 139°59'0 0.0
2014-Jul-24 01:32N 35°28' E 139°59'0 0.0
2014-Jul-24 00:23N 35°28' E 139°59'0 0.1
2014-Jul-23 23:32N 35°28' E 139°59'0 0.0
2014-Jul-23 22:32N 35°28' E 139°59'2 2.0
2014-Jul-23 21:33N 35°30' E 139°58'8 8.2
2014-Jul-23 20:33N 35°26' E 139°49'1010.3
2014-Jul-23 19:34N 35°15' E 139°47'1212.1
2014-Jul-23 18:33N 35°04' E 139°44'1212.0
2014-Jul-23 17:33N 34°53' E 139°37'1312.9
2014-Jul-23 16:33N 34°51' E 139°21'  
2014-Jul-20 04:31N 34°10' E 134°57'1313.2
2014-Jul-20 03:33N 34°23' E 135°01'1313.6
2014-Jul-20 02:33N 34°32' E 135°13'6 5.5
2014-Jul-20 01:30N 34°36' E 135°18'0 0.0
2014-Jul-20 00:30N 34°36' E 135°18'0 0.0
2014-Jul-19 23:25N 34°36' E 135°18'0 0.0
2014-Jul-19 22:30N 34°36' E 135°18'0 0.1
2014-Jul-19 21:30N 34°36' E 135°18'0 0.0
2014-Jul-19 20:30N 34°36' E 135°18'0 0.1
2014-Jul-19 19:30N 34°36' E 135°18'0 0.0
2014-Jul-19 18:30N 34°36' E 135°18'0 0.0
2014-Jul-19 17:31N 34°36' E 135°18'0 0.0
2014-Jul-19 16:30N 34°36' E 135°18'1 0.6
2014-Jul-19 15:33N 34°36' E 135°19'8 7.7
2014-Jul-19 14:32N 34°40' E 135°27'0 0.0
2014-Jul-19 13:26N 34°40' E 135°27'0 0.0
2014-Jul-19 12:32N 34°40' E 135°27'0 0.0
2014-Jul-19 11:14N 34°40' E 135°27'0 0.0
2014-Jul-19 10:32N 34°40' E 135°27'0 0.0
2014-Jul-19 09:20N 34°40' E 135°27'0 0.0
2014-Jul-19 08:32N 34°40' E 135°27'0 0.0
2014-Jul-19 07:20N 34°40' E 135°27'0 0.0
2014-Jul-19 06:32N 34°40' E 135°27'0 0.0
2014-Jul-19 05:32N 34°40' E 135°27'0 0.0
2014-Jul-19 04:26N 34°40' E 135°27'0 0.0
2014-Jul-19 03:26N 34°40' E 135°27'0 0.0
2014-Jul-19 02:32N 34°40' E 135°27'1 0.6
2014-Jul-19 01:33N 34°40' E 135°26'8 8.3
2014-Jul-19 00:33N 34°35' E 135°18'1312.5
2014-Jul-18 23:30N 34°37' E 135°02'1713.4
2014-Jul-18 22:13N 34°40' E 134°41'11 0.2
2014-Jul-16 23:31N 34°37' E 134°54'1010.3
2014-Jul-16 22:33N 34°35' E 135°06'1212.0
2014-Jul-16 21:33N 34°23' E 135°02'1111.0
2014-Jul-16 20:33N 34°12' E 134°59'244 9.7
2014-Jul-15 19:29N 34°47' E 139°52'1211.8
2014-Jul-15 18:29N 34°53' E 140°04'1111.8
2014-Jul-15 17:31N 34°60' E 140°16'1311.2
2014-Jul-15 16:24N 35°05' E 140°30'1211.1
2014-Jul-15 15:17N 35°16' E 140°38'912.1
2014-Jul-15 14:34N 35°23' E 140°43'1313.0
2014-Jul-15 13:34N 35°34' E 140°52'1212.1
2014-Jul-15 12:32N 35°45' E 140°59'1313.3
2014-Jul-15 11:33N 35°58' E 141°01'  

Dump ship's entire track history